Galt, IA (50101)

4:35 PM CST on January 29, 2015 (GMT -0600)
IADOT Williams (I-35) | Change Station
CLOSE
Current Station
Personal Weather Station
Location: Popejoy, IA
Elevation: 1148 ft
Nearby Weather Stations

Elev 1148 ft 42.59 °N, 93.53 °W | Updated 33 minutes ago

Overcast
Overcast
29 °F
Feels Like 14 °F
N
30
Wind Variable Wind from NW
Gusts 38.0 mph

Today
High -- | Low -- °F
--% Chance of Precip.
Yesterday
High -- | Low -- °F
Precip. -- in
7:31 AM 5:23 PM
Waxing Gibbous, 77% visible
Pressure 30.35 in
Visibility 10.0 miles
Clouds Overcast 2000 ft
Windchill 14 °F
Dew Point 21 °F
Humidity 73%
Rainfall -999.00 in
Snow Depth Not available.
UV 0 out of 12
Pollen .10 out of 12
Air Quality Not available.
Flu Activity Not available.
METAR KCAV 292215Z AUTO 32026KT 10SM OVC020 M02/M04 A3035 RMK AO2

More Conditions Fewer Conditions

Pressure 30.35 in
Visibility 10.0 miles
Clouds Overcast 2000 ft
Windchill 14 °F
Dew Point 21 °F
Humidity 73%
Rainfall -999.00 in
Snow Depth Not available.
UV 0 out of 12
Pollen .10 out of 12
Air Quality Not available.
Flu Activity Not available.
METAR KCAV 292215Z AUTO 32026KT 10SM OVC020 M02/M04 A3035 RMK AO2

More Conditions Fewer Conditions

10-Day Weather Forecast

Almanac

Astronomy

Jan. 29, 2015 Rise Set
Actual Time
Civil Twilight
Nautical Twilight
Astronomical Twilight
Moon
Length of Visible Light
Length of Day
Tomorrow will be .
, % of the Moon is Illuminated

Today's Extremes

State Highs State Lows

Community

WunderPhotos

Upload Photos

1,791,632 photos uploaded!

WunderBlogs® & News

Nearby

Air Quality

  Air Quality AQ Index Pollutant
Not available.

Snow Depth

Station Depth Elevation

Earthquake Activity

City Distance Mag. Time & Date
Minimum magnitude displayed is 2.5.

Coastal Water Temperatures

Place Temperature

Nearby Weather Stations